createdAt,value
2023-05-01T00:00:32.424Z,13.10
2023-05-01T00:03:21.069Z,13.20
2023-05-01T00:05:48.959Z,13.20
2023-05-01T00:10:45.392Z,13.20
2023-05-01T00:16:18.249Z,13.50
2023-05-01T00:18:46.352Z,12.90
2023-05-01T00:21:31.707Z,13.10
2023-05-01T00:23:59.531Z,13.00
2023-05-01T00:26:34.155Z,13.00
2023-05-01T00:29:13.930Z,13.00
2023-05-01T00:31:50.819Z,13.20
2023-05-01T00:37:38.503Z,13.10
2023-05-01T00:43:40.512Z,13.10
2023-05-01T00:46:08.803Z,13.00
2023-05-01T00:48:37.142Z,13.00
2023-05-01T00:55:50.082Z,13.00
2023-05-01T00:58:18.893Z,13.00
2023-05-01T01:00:52.747Z,13.00
2023-05-01T01:03:28.577Z,13.00
2023-05-01T01:06:13.329Z,13.00
2023-05-01T01:09:11.526Z,13.10
2023-05-01T01:12:49.219Z,13.00
2023-05-01T01:15:44.696Z,13.10
2023-05-01T01:18:43.199Z,13.10
2023-05-01T01:21:32.184Z,13.00
2023-05-01T01:24:41.899Z,13.00
2023-05-01T01:27:59.677Z,13.00
2023-05-01T01:31:10.052Z,13.00
2023-05-01T01:34:02.575Z,13.00
2023-05-01T01:37:38.284Z,12.70
2023-05-01T01:40:54.176Z,13.00
2023-05-01T01:43:32.000Z,12.90
2023-05-01T01:46:16.951Z,12.90
2023-05-01T01:48:49.370Z,12.90
2023-05-01T01:58:38.033Z,12.80
2023-05-01T02:01:18.880Z,12.70
2023-05-01T02:03:47.811Z,13.20
2023-05-01T02:06:17.704Z,12.80
2023-05-01T02:08:47.122Z,12.80
2023-05-01T02:11:18.820Z,12.90
2023-05-01T02:13:47.683Z,13.40
2023-05-01T02:16:16.408Z,12.80
2023-05-01T02:18:46.535Z,12.60
2023-05-01T02:21:16.046Z,12.70
2023-05-01T02:23:43.608Z,12.50
2023-05-01T02:26:16.994Z,13.00
2023-05-01T02:28:44.623Z,12.60
2023-05-01T02:31:12.234Z,12.40
2023-05-01T02:33:39.609Z,12.40
2023-05-01T02:36:07.114Z,12.40
2023-05-01T02:38:35.461Z,13.40
2023-05-01T02:41:04.208Z,12.10
2023-05-01T02:43:33.472Z,12.20
2023-05-01T02:46:04.568Z,12.20
2023-05-01T02:48:34.707Z,12.20
2023-05-01T02:51:03.579Z,12.30
2023-05-01T02:53:32.703Z,12.20
2023-05-01T02:56:07.940Z,13.60
2023-05-01T02:58:35.614Z,12.10
2023-05-01T03:01:03.510Z,12.10
2023-05-01T03:03:30.985Z,12.70
2023-05-01T03:05:59.174Z,12.60
2023-05-01T03:08:26.452Z,12.50
2023-05-01T03:10:53.797Z,12.50
2023-05-01T03:13:22.634Z,12.60
2023-05-01T03:15:50.128Z,12.40
2023-05-01T03:18:17.456Z,12.60
2023-05-01T03:20:52.747Z,12.40
2023-05-01T03:23:21.277Z,12.50
2023-05-01T03:25:49.459Z,12.40
2023-05-01T03:28:17.365Z,12.50
2023-05-01T03:30:45.423Z,12.50
2023-05-01T03:33:13.239Z,12.30
2023-05-01T03:35:40.997Z,13.80
2023-05-01T03:38:09.007Z,12.40
2023-05-01T03:40:55.137Z,12.60
2023-05-01T03:43:41.094Z,12.30
2023-05-01T03:46:17.036Z,12.10
2023-05-01T03:48:44.604Z,12.00
2023-05-01T03:51:12.063Z,11.90
2023-05-01T03:53:39.591Z,12.10
2023-05-01T03:56:09.217Z,12.20
2023-05-01T03:58:36.932Z,12.10
2023-05-01T04:01:05.608Z,12.20
2023-05-01T04:03:34.489Z,12.30
2023-05-01T04:06:02.745Z,12.20
2023-05-01T04:08:30.139Z,12.10
2023-05-01T04:10:57.712Z,12.10
2023-05-01T04:13:25.192Z,13.10
2023-05-01T04:15:52.933Z,12.20
2023-05-01T04:18:20.723Z,12.10
2023-05-01T04:20:48.197Z,13.00
2023-05-01T04:23:16.065Z,13.20
2023-05-01T04:25:44.494Z,12.20
2023-05-01T04:28:16.707Z,12.10
2023-05-01T04:30:44.128Z,12.10
2023-05-01T04:33:11.864Z,12.40
2023-05-01T04:35:41.569Z,12.40
2023-05-01T04:38:10.722Z,12.00
2023-05-01T04:40:39.315Z,12.00
2023-05-01T04:43:06.796Z,11.90
2023-05-01T04:45:34.632Z,11.90
2023-05-01T04:48:02.698Z,12.10
2023-05-01T04:50:30.224Z,12.00
2023-05-01T04:52:57.850Z,12.70
2023-05-01T04:55:25.368Z,12.10
2023-05-01T04:58:05.478Z,12.20
2023-05-01T05:00:35.112Z,11.60
2023-05-01T05:03:03.465Z,12.00
2023-05-01T05:05:32.001Z,12.20
2023-05-01T05:07:59.797Z,12.00
2023-05-01T05:10:38.680Z,12.10
2023-05-01T05:13:22.281Z,12.10
2023-05-01T05:15:59.091Z,12.10
2023-05-01T05:18:27.077Z,12.20
2023-05-01T05:20:55.599Z,12.90
2023-05-01T05:23:23.075Z,12.30
2023-05-01T05:25:50.720Z,13.80
2023-05-01T05:28:18.422Z,12.30
2023-05-01T05:30:49.136Z,12.20
2023-05-01T05:33:20.038Z,12.40
2023-05-01T05:35:47.544Z,12.10
2023-05-01T05:38:15.732Z,12.40
2023-05-01T05:40:49.312Z,12.40
2023-05-01T05:43:16.988Z,12.80
2023-05-01T05:45:44.741Z,12.20
2023-05-01T05:48:12.655Z,12.70
2023-05-01T05:50:41.892Z,12.20
2023-05-01T05:53:10.124Z,12.40
2023-05-01T05:55:38.781Z,12.20
2023-05-01T05:58:07.488Z,12.20
2023-05-01T06:00:37.166Z,12.70
2023-05-01T06:03:07.099Z,12.10
2023-05-01T06:05:36.458Z,12.10
2023-05-01T06:08:04.294Z,12.00
2023-05-01T06:10:31.970Z,10.60
2023-05-01T06:13:10.224Z,12.10
2023-05-01T06:15:46.071Z,12.10
2023-05-01T06:18:13.689Z,12.30
2023-05-01T06:20:41.525Z,12.30
2023-05-01T06:23:09.957Z,12.50
2023-05-01T06:25:46.020Z,12.80
2023-05-01T06:28:13.382Z,13.60
2023-05-01T06:30:40.786Z,13.30
2023-05-01T06:33:09.859Z,12.40
2023-05-01T06:35:41.618Z,12.50
2023-05-01T06:38:08.971Z,12.40
2023-05-01T06:40:36.349Z,12.50
2023-05-01T06:43:04.111Z,12.90
2023-05-01T06:45:32.010Z,12.80
2023-05-01T06:47:59.683Z,12.60
2023-05-01T06:50:28.812Z,12.70
2023-05-01T06:52:56.169Z,12.80
2023-05-01T06:55:23.802Z,12.80
2023-05-01T06:57:51.096Z,12.80
2023-05-01T07:00:18.957Z,13.30
2023-05-01T07:02:46.513Z,12.70
2023-05-01T07:05:14.117Z,12.40
2023-05-01T07:07:47.342Z,12.70
2023-05-01T07:10:18.210Z,12.90
2023-05-01T07:12:45.659Z,13.10
2023-05-01T07:15:15.482Z,13.80
2023-05-01T07:17:43.076Z,13.50
2023-05-01T07:20:11.573Z,13.10
2023-05-01T07:22:38.883Z,13.20
2023-05-01T07:25:07.190Z,13.20
2023-05-01T07:27:35.044Z,11.90
2023-05-01T07:30:05.145Z,13.30
2023-05-01T07:32:33.134Z,14.70
2023-05-01T07:35:00.751Z,13.20
2023-05-01T07:37:29.248Z,13.30
2023-05-01T07:39:58.447Z,13.50
2023-05-01T07:42:29.347Z,13.40
2023-05-01T07:44:56.719Z,13.50
2023-05-01T07:47:24.275Z,13.20
2023-05-01T07:49:51.764Z,13.20
2023-05-01T07:52:19.185Z,13.30
2023-05-01T07:54:50.975Z,13.20
2023-05-01T07:57:18.787Z,13.20
2023-05-01T07:59:46.415Z,13.10
2023-05-01T08:02:14.046Z,13.40
2023-05-01T08:04:41.713Z,13.20
2023-05-01T08:07:09.276Z,15.60
2023-05-01T08:09:36.589Z,13.80
2023-05-01T08:12:04.127Z,13.40
2023-05-01T08:14:31.968Z,13.30
2023-05-01T08:16:59.336Z,13.50
2023-05-01T08:19:28.632Z,13.40
2023-05-01T08:21:56.043Z,14.70
2023-05-01T08:24:23.440Z,13.80
2023-05-01T08:26:51.352Z,13.50
2023-05-01T08:29:18.811Z,13.60
2023-05-01T08:31:46.131Z,14.40
2023-05-01T08:34:13.514Z,13.60
2023-05-01T08:36:40.904Z,13.40
2023-05-01T08:39:08.302Z,13.60
2023-05-01T08:41:37.740Z,13.70
2023-05-01T08:44:09.225Z,14.30
2023-05-01T08:47:08.281Z,13.70
2023-05-01T08:49:37.721Z,13.70
2023-05-01T08:52:06.748Z,14.40
2023-05-01T08:54:36.568Z,15.60
2023-05-01T08:57:04.653Z,14.20
2023-05-01T08:59:35.068Z,14.50
2023-05-01T09:02:07.325Z,15.20
2023-05-01T09:04:37.465Z,15.60
2023-05-01T09:07:05.505Z,14.90
2023-05-01T09:09:33.497Z,14.90
2023-05-01T09:12:27.484Z,14.70
2023-05-01T09:14:56.584Z,14.60
2023-05-01T09:17:24.475Z,14.80
2023-05-01T09:19:52.469Z,15.00
2023-05-01T09:22:20.441Z,15.20
2023-05-01T09:24:48.452Z,15.10
2023-05-01T09:27:16.915Z,14.90
2023-05-01T09:29:47.460Z,15.40
2023-05-01T09:32:21.108Z,15.30
2023-05-01T09:34:50.348Z,15.40
2023-05-01T09:37:31.319Z,15.50
2023-05-01T09:40:06.253Z,15.80
2023-05-01T09:42:38.662Z,16.00
2023-05-01T09:45:16.919Z,15.60
2023-05-01T09:47:45.566Z,15.80
2023-05-01T09:50:28.987Z,15.70
2023-05-01T09:52:56.453Z,15.30
2023-05-01T09:55:25.629Z,15.20
2023-05-01T09:57:53.690Z,15.10
2023-05-01T10:00:22.224Z,14.80
2023-05-01T10:02:50.740Z,15.10
2023-05-01T10:05:19.257Z,15.20
2023-05-01T10:08:02.180Z,15.30
2023-05-01T10:10:29.857Z,15.50
2023-05-01T10:13:21.691Z,15.50
2023-05-01T10:15:50.161Z,15.60
2023-05-01T10:18:19.216Z,16.60
2023-05-01T10:20:46.775Z,15.50
2023-05-01T10:23:14.591Z,16.90
2023-05-01T10:25:42.999Z,15.50
2023-05-01T10:28:11.770Z,15.50
2023-05-01T10:30:41.337Z,15.80
2023-05-01T10:33:09.016Z,16.20
2023-05-01T10:35:39.198Z,16.20
2023-05-01T10:38:09.627Z,16.50
2023-05-01T10:40:40.256Z,16.70
2023-05-01T10:43:36.333Z,16.50
2023-05-01T10:46:21.580Z,16.60
2023-05-01T10:48:55.888Z,16.60
2023-05-01T10:51:27.877Z,16.60
2023-05-01T10:54:28.879Z,16.50
2023-05-01T10:57:01.418Z,16.70
2023-05-01T11:00:01.790Z,16.90
2023-05-01T11:04:58.067Z,17.20
2023-05-01T11:07:27.010Z,17.30
2023-05-01T11:09:57.655Z,17.70
2023-05-01T11:12:51.180Z,18.00
2023-05-01T11:15:31.410Z,18.00
2023-05-01T11:18:00.565Z,18.20
2023-05-01T11:20:29.177Z,18.40
2023-05-01T11:22:57.493Z,18.40
2023-05-01T11:25:33.211Z,18.40
2023-05-01T11:28:03.817Z,18.60
2023-05-01T11:30:41.577Z,18.90
2023-05-01T11:35:38.862Z,19.00
2023-05-01T11:38:06.351Z,19.10
2023-05-01T11:40:35.046Z,19.30
2023-05-01T11:43:09.113Z,19.50
2023-05-01T11:45:37.816Z,19.50
2023-05-01T11:50:35.929Z,19.40
2023-05-01T11:53:11.637Z,19.40
2023-05-01T11:55:40.070Z,19.30
2023-05-01T11:58:07.846Z,18.90
2023-05-01T12:00:38.009Z,18.80
2023-05-01T12:03:13.776Z,18.80
2023-05-01T12:05:45.427Z,18.70
2023-05-01T12:08:20.893Z,18.80
2023-05-01T12:10:52.272Z,18.90
2023-05-01T12:13:20.642Z,18.50
2023-05-01T12:15:57.255Z,18.40
2023-05-01T12:18:24.785Z,18.30
2023-05-01T12:20:54.311Z,18.40
2023-05-01T12:23:37.308Z,18.40
2023-05-01T12:26:23.647Z,18.30
2023-05-01T12:29:05.784Z,18.40
2023-05-01T12:31:33.928Z,18.10
2023-05-01T12:34:03.742Z,18.20
2023-05-01T12:36:33.813Z,18.40
2023-05-01T12:39:06.819Z,18.50
2023-05-01T12:44:02.452Z,18.20
2023-05-01T12:46:29.996Z,18.10
2023-05-01T12:48:57.636Z,17.90
2023-05-01T12:51:28.101Z,17.90
2023-05-01T12:53:58.146Z,17.90
2023-05-01T12:56:25.910Z,17.80
2023-05-01T12:58:55.153Z,17.80
2023-05-01T13:01:29.827Z,19.00
2023-05-01T13:03:58.105Z,18.20
2023-05-01T13:06:36.111Z,18.30
2023-05-01T13:09:12.949Z,18.50
2023-05-01T13:11:40.533Z,18.50
2023-05-01T13:14:09.188Z,18.00
2023-05-01T13:16:49.674Z,19.00
2023-05-01T13:19:28.641Z,19.40
2023-05-01T13:21:57.943Z,19.40
2023-05-01T13:24:42.277Z,19.50
2023-05-01T13:27:10.149Z,19.40
2023-05-01T13:29:38.800Z,19.40
2023-05-01T13:32:06.764Z,19.40
2023-05-01T13:34:35.126Z,19.40
2023-05-01T13:37:02.626Z,19.60
2023-05-01T13:39:30.022Z,20.20
2023-05-01T13:41:57.372Z,20.20
2023-05-01T13:44:24.669Z,20.60
2023-05-01T13:46:52.091Z,20.90
2023-05-01T13:49:25.612Z,20.90
2023-05-01T13:51:53.706Z,21.00
2023-05-01T13:54:21.056Z,20.80
2023-05-01T13:56:48.439Z,20.90
2023-05-01T13:59:16.159Z,20.80
2023-05-01T14:01:46.332Z,20.60
2023-05-01T14:04:18.631Z,20.70
2023-05-01T14:06:47.520Z,20.80
2023-05-01T14:09:18.388Z,21.80
2023-05-01T14:11:47.916Z,21.50
2023-05-01T14:14:16.260Z,21.30
2023-05-01T14:16:47.540Z,21.00
2023-05-01T14:19:17.566Z,20.60
2023-05-01T14:21:44.931Z,20.40
2023-05-01T14:24:13.467Z,20.30
2023-05-01T14:26:43.343Z,20.40
2023-05-01T14:29:26.813Z,20.40
2023-05-01T14:31:55.479Z,20.80
2023-05-01T14:36:51.272Z,20.80
2023-05-01T14:39:18.894Z,20.70
2023-05-01T14:41:47.997Z,20.30
2023-05-01T14:44:18.182Z,20.00
2023-05-01T14:46:49.587Z,19.60
2023-05-01T14:49:24.680Z,19.20
2023-05-01T14:51:53.379Z,19.10
2023-05-01T14:54:21.303Z,18.90
2023-05-01T14:56:49.001Z,18.70
2023-05-01T14:59:17.164Z,18.60
2023-05-01T15:01:44.521Z,18.10
2023-05-01T15:04:12.759Z,18.40
2023-05-01T15:09:07.978Z,18.30
2023-05-01T15:11:35.408Z,18.30
2023-05-01T15:14:04.106Z,18.30
2023-05-01T15:16:31.923Z,18.70
2023-05-01T15:19:01.117Z,18.40
2023-05-01T15:21:28.432Z,18.20
2023-05-01T15:23:55.852Z,18.00
2023-05-01T15:26:23.272Z,17.80
2023-05-01T15:28:50.675Z,18.00
2023-05-01T15:31:19.256Z,18.10
2023-05-01T15:33:46.848Z,18.10
2023-05-01T15:36:14.114Z,18.20
2023-05-01T15:38:41.629Z,18.40
2023-05-01T15:41:08.864Z,18.50
2023-05-01T15:43:36.288Z,18.70
2023-05-01T15:46:06.122Z,18.60
2023-05-01T15:48:33.838Z,18.80
2023-05-01T15:53:29.581Z,19.50
2023-05-01T15:55:58.516Z,20.50
2023-05-01T15:58:25.943Z,22.30
2023-05-01T16:00:53.471Z,22.70
2023-05-01T16:03:21.013Z,23.00
2023-05-01T16:05:48.426Z,23.20
2023-05-01T16:08:17.650Z,23.60
2023-05-01T16:10:45.354Z,24.00
2023-05-01T16:13:13.117Z,24.10
2023-05-01T16:15:40.415Z,24.10
2023-05-01T16:18:08.692Z,24.40
2023-05-01T16:20:42.499Z,23.20
2023-05-01T16:23:10.587Z,23.10
2023-05-01T16:25:42.381Z,22.80
2023-05-01T16:28:09.854Z,23.00
2023-05-01T16:30:44.382Z,23.30
2023-05-01T16:33:18.770Z,24.30
2023-05-01T16:35:50.236Z,24.60
2023-05-01T16:38:18.684Z,25.00
2023-05-01T16:40:48.163Z,24.40
2023-05-01T16:43:15.685Z,23.60
2023-05-01T16:45:43.052Z,23.50
2023-05-01T16:48:10.660Z,23.80
2023-05-01T16:50:41.422Z,24.40
2023-05-01T16:53:08.808Z,24.70
2023-05-01T16:55:36.202Z,24.80
2023-05-01T16:58:03.588Z,24.60
2023-05-01T17:00:31.349Z,24.90
2023-05-01T17:02:59.381Z,25.30
2023-05-01T17:05:26.941Z,25.60
2023-05-01T17:07:54.650Z,25.60
2023-05-01T17:10:22.075Z,25.80
2023-05-01T17:12:49.521Z,25.80
2023-05-01T17:15:17.102Z,25.90
2023-05-01T17:17:44.429Z,26.00
2023-05-01T17:20:12.222Z,25.80
2023-05-01T17:22:39.831Z,25.70
2023-05-01T17:25:07.946Z,25.60
2023-05-01T17:27:35.527Z,25.70
2023-05-01T17:30:04.475Z,25.40
2023-05-01T17:32:37.099Z,25.50
2023-05-01T17:35:05.972Z,24.90
2023-05-01T17:37:33.480Z,24.00
2023-05-01T17:40:01.971Z,23.30
2023-05-01T17:42:29.593Z,22.70
2023-05-01T17:44:57.031Z,22.70
2023-05-01T17:47:26.121Z,22.40
2023-05-01T17:49:54.302Z,22.60
2023-05-01T17:52:21.802Z,22.80
2023-05-01T17:54:49.110Z,23.00
2023-05-01T17:57:16.786Z,23.20
2023-05-01T17:59:44.071Z,23.40
2023-05-01T18:02:11.497Z,23.60
2023-05-01T18:04:38.852Z,23.90
2023-05-01T18:07:06.612Z,24.10
2023-05-01T18:09:33.834Z,24.20
2023-05-01T18:12:01.375Z,24.30
2023-05-01T18:14:28.809Z,24.60
2023-05-01T18:16:56.288Z,24.50
2023-05-01T18:19:23.713Z,24.30
2023-05-01T18:21:51.263Z,23.90
2023-05-01T18:24:18.515Z,23.40
2023-05-01T18:26:45.867Z,22.60
2023-05-01T18:29:13.584Z,22.40
2023-05-01T18:31:42.578Z,22.00
2023-05-01T18:34:12.145Z,21.60
2023-05-01T18:36:39.559Z,20.70
2023-05-01T18:39:06.880Z,20.70
2023-05-01T18:44:03.928Z,20.00
2023-05-01T18:46:31.328Z,19.70
2023-05-01T18:48:59.759Z,19.60
2023-05-01T18:51:27.111Z,19.70
2023-05-01T18:53:54.589Z,19.60
2023-05-01T18:56:24.241Z,19.20
2023-05-01T18:58:51.640Z,19.40
2023-05-01T19:01:19.152Z,19.50
2023-05-01T19:03:47.231Z,19.50
2023-05-01T19:06:14.550Z,19.40
2023-05-01T19:08:41.964Z,19.20
2023-05-01T19:11:09.198Z,19.20
2023-05-01T19:13:36.673Z,19.10
2023-05-01T19:16:04.190Z,18.90
2023-05-01T19:18:33.220Z,18.70
2023-05-01T19:21:00.623Z,18.80
2023-05-01T19:23:30.547Z,18.50
2023-05-01T19:25:58.080Z,18.40
2023-05-01T19:28:25.547Z,18.20
2023-05-01T19:30:52.817Z,18.20
2023-05-01T19:33:20.121Z,18.00
2023-05-01T19:43:13.335Z,17.70
2023-05-01T19:45:40.668Z,17.90
2023-05-01T19:50:36.219Z,17.50
2023-05-01T19:53:05.219Z,17.10
2023-05-01T19:55:32.555Z,17.40
2023-05-01T19:57:59.777Z,17.40
2023-05-01T20:00:27.996Z,17.50
2023-05-01T20:02:55.582Z,17.50
2023-05-01T20:05:27.982Z,17.30
2023-05-01T20:07:55.776Z,17.30
2023-05-01T20:10:23.142Z,17.30
2023-05-01T20:12:50.563Z,17.20
2023-05-01T20:15:18.942Z,17.30
2023-05-01T20:20:20.901Z,17.20
2023-05-01T20:22:51.824Z,17.20
2023-05-01T20:25:19.179Z,17.30
2023-05-01T20:30:14.191Z,17.10
2023-05-01T20:32:44.187Z,17.20
2023-05-01T20:35:11.754Z,17.10
2023-05-01T20:37:39.142Z,16.90
2023-05-01T20:40:07.413Z,17.10
2023-05-01T20:42:34.779Z,17.10
2023-05-01T20:45:02.398Z,17.10
2023-05-01T20:47:31.333Z,17.20
2023-05-01T20:49:59.050Z,17.10
2023-05-01T20:54:54.918Z,17.10
2023-05-01T20:57:22.428Z,17.30
2023-05-01T20:59:50.904Z,17.10
2023-05-01T21:02:18.401Z,17.10
2023-05-01T21:04:48.405Z,16.90
2023-05-01T21:07:16.132Z,17.00
2023-05-01T21:09:46.773Z,17.00
2023-05-01T21:12:15.040Z,16.90
2023-05-01T21:14:42.610Z,17.00
2023-05-01T21:19:43.199Z,16.90
2023-05-01T21:22:20.896Z,16.90
2023-05-01T21:24:59.379Z,17.20
2023-05-01T21:27:27.520Z,17.00
2023-05-01T21:29:57.251Z,17.00
2023-05-01T21:32:41.688Z,17.40
2023-05-01T21:35:10.139Z,16.80
2023-05-01T21:37:37.985Z,16.70
2023-05-01T21:40:07.010Z,17.00
2023-05-01T21:42:37.901Z,16.70
2023-05-01T21:45:10.472Z,16.70
2023-05-01T21:47:40.445Z,16.60
2023-05-01T21:50:08.818Z,16.70
2023-05-01T21:52:36.485Z,16.60
2023-05-01T21:55:09.436Z,16.70
2023-05-01T21:57:39.256Z,16.50
2023-05-01T22:00:10.452Z,16.40
2023-05-01T22:02:48.037Z,16.40
2023-05-01T22:05:18.278Z,16.70
2023-05-01T22:07:47.295Z,16.40
2023-05-01T22:10:17.306Z,16.50
2023-05-01T22:12:48.837Z,16.20
2023-05-01T22:15:16.517Z,16.30
2023-05-01T22:17:44.708Z,16.20
2023-05-01T22:20:12.513Z,16.30
2023-05-01T22:22:41.201Z,15.70
2023-05-01T22:25:10.075Z,15.90
2023-05-01T22:27:37.962Z,15.80
2023-05-01T22:30:06.282Z,15.90
2023-05-01T22:37:29.552Z,15.50
2023-05-01T22:39:57.416Z,15.30
2023-05-01T22:42:25.177Z,15.40
2023-05-01T22:44:52.525Z,15.30
2023-05-01T22:47:20.080Z,15.40
2023-05-01T22:49:47.696Z,15.10
2023-05-01T22:52:15.437Z,15.10
2023-05-01T22:54:42.678Z,15.10
2023-05-01T22:57:10.339Z,15.60
2023-05-01T22:59:39.560Z,15.30
2023-05-01T23:02:07.095Z,14.80
2023-05-01T23:04:34.586Z,14.90
2023-05-01T23:07:01.972Z,14.70
2023-05-01T23:09:32.068Z,14.70
2023-05-01T23:11:59.532Z,14.80
2023-05-01T23:14:27.012Z,14.60
2023-05-01T23:16:55.556Z,15.00
2023-05-01T23:19:24.493Z,14.90
2023-05-01T23:22:04.714Z,14.60
2023-05-01T23:24:44.935Z,14.50
2023-05-01T23:27:14.220Z,14.50
2023-05-01T23:29:42.125Z,14.40
2023-05-01T23:32:15.272Z,15.00
2023-05-01T23:34:43.461Z,14.30
2023-05-01T23:37:11.007Z,14.30
2023-05-01T23:39:38.436Z,14.30
2023-05-01T23:42:06.854Z,14.30
2023-05-01T23:44:34.235Z,15.70
2023-05-01T23:47:01.799Z,14.20
2023-05-01T23:49:29.393Z,15.50
2023-05-01T23:51:56.952Z,14.50
2023-05-01T23:54:24.377Z,15.20
2023-05-01T23:56:51.684Z,14.10
2023-05-01T23:59:19.089Z,14.10
